Friday, May 25, 2018, 8:54 AM EDT
Back to Local

K12N, Aeroflex-andover Airport

Location: Newton, NJ, United States Lat: 41.017
Local Time: 8:54 AM EDT (12:54 GMT) Lon: -74.733
Time Zone: US/Eastern Elev: 583 ft

Show me the last for .
Show Decoded

2018-05-25 07:54 METAR K12N 251154Z AUTO 15003KT 18/13 A3006 RMK AO1 SLP173 T01830128 10183 20122
                 58004 =
2018-05-25 06:54 METAR K12N 251054Z AUTO 00000KT 14/13 A3007 RMK AO1 SLP176 T01390133 =
2018-05-25 05:54 METAR K12N 250954Z AUTO 20004KT 13/12 A3007 RMK AO1 SLP176 T01280117 =
2018-05-25 04:54 METAR K12N 250854Z AUTO 00000KT 13/12 A3007 RMK AO1 SLP177 T01280117 56008 =
2018-05-25 03:54 METAR K12N 250754Z AUTO 00000KT 13/12 A3007 RMK AO1 SLP177 T01280122 =
2018-05-25 02:54 METAR K12N 250654Z AUTO 00000KT 13/12 A3008 RMK AO1 SLP179 T01330122 =
2018-05-25 01:54 METAR K12N 250554Z AUTO 00000KT 13/12 A3009 RMK AO1 SLP185 T01330122 10211 20133
                 58001 =
2018-05-25 00:54 METAR K12N 250454Z AUTO 20003KT 14/13 A3010 RMK AO1 SLP187 T01390128 402890106 =
2018-05-24 23:54 METAR K12N 250354Z AUTO 21003KT 14/12 A3011 RMK AO1 SLP189 T01440122 =
2018-05-24 22:54 METAR K12N 250254Z AUTO 00000KT 15/13 A3010 RMK AO1 SLP188 T01500133 50007 =
2018-05-24 21:54 METAR K12N 250154Z AUTO 19003KT 17/13 A3010 RMK AO1 SLP189 T01670133 =
2018-05-24 20:54 METAR K12N 250054Z AUTO 00000KT 18/13 A3009 RMK AO1 SLP183 T01830128 =
2018-05-24 19:54 METAR K12N 242354Z AUTO 00000KT 21/12 A3008 RMK AO1 SLP181 T02110122 10289 20211
                 55001 =
2018-05-24 18:54 METAR K12N 242254Z AUTO 00000KT 27/10 A3007 RMK AO1 SLP177 T02670100 =
2018-05-24 17:54 METAR K12N 242154Z AUTO 00000KT 29/07 A3007 RMK AO1 SLP178 T02890067 =
2018-05-24 16:54 METAR K12N 242054Z AUTO 00000KT 28/09 A3008 RMK AO1 SLP181 T02830089 58012 =
2018-05-24 15:54 METAR K12N 241954Z AUTO VRB03KT 28/06 A3010 RMK AO1 SLP188 T02780056 =
2018-05-24 14:54 METAR K12N 241854Z AUTO VRB03KT 28/07 A3011 RMK AO1 SLP192 T02780067 =
2018-05-24 13:54 METAR K12N 241754Z AUTO VRB05KT 27/06 A3012 RMK AO1 SLP195 T02670056 10267 20172
                 58013 =
2018-05-24 12:54 METAR K12N 241654Z AUTO 02007KT 340V060 26/07 A3014 RMK AO1 SLP200 T02610067 =
2018-05-24 11:54 METAR K12N 241554Z AUTO VRB04KT 25/07 A3016 RMK AO1 SLP207 T02500072 =
2018-05-24 10:54 METAR K12N 241454Z AUTO VRB04KT 23/06 A3016 RMK AO1 SLP208 T02280061 58001 =
2018-05-24 09:54 METAR K12N 241354Z AUTO 34007KT 310V020 21/07 A3016 RMK AO1 SLP210 T02110072 =

Support USWX by starting your Amazon purchase here.